sensor_id;sensor_type;location;lat;lon;timestamp;pressure;altitude;pressure_sealevel;temperature;humidity
21203;BME280;10759;51.982;9.232;2022-08-02T00:00:55;100689.09;;;15.49;100.00
21203;BME280;10759;51.982;9.232;2022-08-02T00:03:23;100695.69;;;15.43;100.00
21203;BME280;10759;51.982;9.232;2022-08-02T00:05:53;100693.25;;;15.38;100.00
21203;BME280;10759;51.982;9.232;2022-08-02T00:08:21;100690.63;;;15.37;100.00
21203;BME280;10759;51.982;9.232;2022-08-02T00:10:49;100701.41;;;15.37;100.00
21203;BME280;10759;51.982;9.232;2022-08-02T00:13:17;100690.94;;;15.31;100.00
21203;BME280;10759;51.982;9.232;2022-08-02T00:15:45;100694.97;;;15.39;100.00
21203;BME280;10759;51.982;9.232;2022-08-02T00:18:13;100697.84;;;15.36;100.00
21203;BME280;10759;51.982;9.232;2022-08-02T00:20:41;100695.84;;;15.40;100.00
21203;BME280;10759;51.982;9.232;2022-08-02T00:23:10;100689.44;;;15.25;100.00
21203;BME280;10759;51.982;9.232;2022-08-02T00:25:38;100692.06;;;15.27;100.00
21203;BME280;10759;51.982;9.232;2022-08-02T00:28:21;100707.47;;;15.24;100.00
21203;BME280;10759;51.982;9.232;2022-08-02T00:30:54;100696.91;;;15.20;100.00
21203;BME280;10759;51.982;9.232;2022-08-02T00:33:22;100704.13;;;15.02;100.00
21203;BME280;10759;51.982;9.232;2022-08-02T00:36:10;100708.56;;;15.03;100.00
21203;BME280;10759;51.982;9.232;2022-08-02T00:38:39;100714.13;;;15.00;100.00
21203;BME280;10759;51.982;9.232;2022-08-02T00:41:10;100708.72;;;15.00;100.00
21203;BME280;10759;51.982;9.232;2022-08-02T00:43:38;100707.53;;;15.06;100.00
21203;BME280;10759;51.982;9.232;2022-08-02T00:46:06;100706.03;;;15.00;100.00
21203;BME280;10759;51.982;9.232;2022-08-02T00:48:35;100701.72;;;14.96;100.00
21203;BME280;10759;51.982;9.232;2022-08-02T00:51:08;100705.22;;;14.98;100.00
21203;BME280;10759;51.982;9.232;2022-08-02T00:53:36;100701.44;;;15.02;100.00
21203;BME280;10759;51.982;9.232;2022-08-02T00:56:06;100703.00;;;14.89;100.00
21203;BME280;10759;51.982;9.232;2022-08-02T00:58:34;100706.03;;;14.82;100.00
21203;BME280;10759;51.982;9.232;2022-08-02T01:01:02;100705.16;;;14.99;100.00
21203;BME280;10759;51.982;9.232;2022-08-02T01:03:30;100697.38;;;14.93;100.00
21203;BME280;10759;51.982;9.232;2022-08-02T01:05:57;100706.78;;;14.67;100.00
21203;BME280;10759;51.982;9.232;2022-08-02T01:08:41;100707.13;;;14.78;100.00
21203;BME280;10759;51.982;9.232;2022-08-02T01:11:11;100700.41;;;14.87;100.00
21203;BME280;10759;51.982;9.232;2022-08-02T01:13:39;100702.06;;;14.90;100.00
21203;BME280;10759;51.982;9.232;2022-08-02T01:16:08;100700.63;;;14.82;100.00
21203;BME280;10759;51.982;9.232;2022-08-02T01:18:39;100708.72;;;14.82;100.00
21203;BME280;10759;51.982;9.232;2022-08-02T01:21:22;100701.41;;;14.85;100.00
21203;BME280;10759;51.982;9.232;2022-08-02T01:24:02;100695.22;;;14.82;100.00
21203;BME280;10759;51.982;9.232;2022-08-02T01:26:36;100695.69;;;14.91;100.00
21203;BME280;10759;51.982;9.232;2022-08-02T01:29:08;100694.53;;;15.14;100.00
21203;BME280;10759;51.982;9.232;2022-08-02T01:31:39;100697.78;;;15.03;100.00
21203;BME280;10759;51.982;9.232;2022-08-02T01:34:10;100699.19;;;14.93;100.00
21203;BME280;10759;51.982;9.232;2022-08-02T01:36:42;100696.66;;;14.90;100.00
21203;BME280;10759;51.982;9.232;2022-08-02T01:39:12;100688.22;;;14.78;100.00
21203;BME280;10759;51.982;9.232;2022-08-02T01:41:57;100699.97;;;14.77;100.00
21203;BME280;10759;51.982;9.232;2022-08-02T01:44:29;100699.19;;;14.75;100.00
21203;BME280;10759;51.982;9.232;2022-08-02T01:46:59;100700.91;;;14.76;100.00
21203;BME280;10759;51.982;9.232;2022-08-02T01:49:29;100691.03;;;14.77;100.00
21203;BME280;10759;51.982;9.232;2022-08-02T01:51:57;100706.78;;;14.67;100.00
21203;BME280;10759;51.982;9.232;2022-08-02T01:54:44;100702.16;;;14.69;100.00
21203;BME280;10759;51.982;9.232;2022-08-02T01:57:14;100704.38;;;14.61;100.00
21203;BME280;10759;51.982;9.232;2022-08-02T01:59:44;100707.66;;;14.49;100.00
21203;BME280;10759;51.982;9.232;2022-08-02T02:02:13;100703.44;;;14.43;100.00
21203;BME280;10759;51.982;9.232;2022-08-02T02:04:45;100694.78;;;14.36;100.00
21203;BME280;10759;51.982;9.232;2022-08-02T02:07:14;100693.09;;;14.34;100.00
21203;BME280;10759;51.982;9.232;2022-08-02T02:09:43;100690.34;;;14.35;100.00
21203;BME280;10759;51.982;9.232;2022-08-02T02:12:16;100694.88;;;14.35;100.00
21203;BME280;10759;51.982;9.232;2022-08-02T02:14:47;100698.66;;;14.31;100.00
21203;BME280;10759;51.982;9.232;2022-08-02T02:17:17;100701.72;;;14.23;100.00
21203;BME280;10759;51.982;9.232;2022-08-02T02:20:07;100703.97;;;14.32;100.00
21203;BME280;10759;51.982;9.232;2022-08-02T02:22:36;100697.84;;;14.29;100.00
21203;BME280;10759;51.982;9.232;2022-08-02T02:25:04;100700.59;;;14.27;100.00
21203;BME280;10759;51.982;9.232;2022-08-02T02:27:36;100699.81;;;14.25;100.00
21203;BME280;10759;51.982;9.232;2022-08-02T02:30:12;100695.31;;;14.26;100.00
21203;BME280;10759;51.982;9.232;2022-08-02T02:32:40;100699.09;;;14.22;100.00
21203;BME280;10759;51.982;9.232;2022-08-02T02:35:08;100701.19;;;14.34;100.00
21203;BME280;10759;51.982;9.232;2022-08-02T02:37:37;100696.75;;;14.33;100.00
21203;BME280;10759;51.982;9.232;2022-08-02T02:40:06;100685.97;;;14.33;100.00
21203;BME280;10759;51.982;9.232;2022-08-02T02:42:34;100681.72;;;14.27;100.00
21203;BME280;10759;51.982;9.232;2022-08-02T02:45:07;100679.84;;;14.29;100.00
21203;BME280;10759;51.982;9.232;2022-08-02T02:47:37;100674.22;;;14.34;100.00
21203;BME280;10759;51.982;9.232;2022-08-02T02:50:07;100670.19;;;14.25;100.00
21203;BME280;10759;51.982;9.232;2022-08-02T02:52:36;100666.53;;;14.26;100.00
21203;BME280;10759;51.982;9.232;2022-08-02T02:55:05;100667.47;;;14.25;100.00
21203;BME280;10759;51.982;9.232;2022-08-02T02:57:33;100653.34;;;14.20;100.00
21203;BME280;10759;51.982;9.232;2022-08-02T03:00:03;100656.59;;;14.27;100.00
21203;BME280;10759;51.982;9.232;2022-08-02T03:02:31;100672.88;;;14.25;100.00
21203;BME280;10759;51.982;9.232;2022-08-02T03:05:02;100662.97;;;14.26;100.00
21203;BME280;10759;51.982;9.232;2022-08-02T03:07:31;100667.47;;;14.25;100.00
21203;BME280;10759;51.982;9.232;2022-08-02T03:09:59;100654.28;;;14.19;100.00
21203;BME280;10759;51.982;9.232;2022-08-02T03:12:27;100654.28;;;14.19;100.00
21203;BME280;10759;51.982;9.232;2022-08-02T03:14:58;100653.63;;;14.33;100.00
21203;BME280;10759;51.982;9.232;2022-08-02T03:17:35;100653.03;;;14.26;100.00
21203;BME280;10759;51.982;9.232;2022-08-02T03:20:10;100657.78;;;14.21;100.00
21203;BME280;10759;51.982;9.232;2022-08-02T03:22:39;100656.34;;;14.14;100.00
21203;BME280;10759;51.982;9.232;2022-08-02T03:25:07;100654.94;;;14.24;100.00
21203;BME280;10759;51.982;9.232;2022-08-02T03:27:36;100658.53;;;14.06;100.00
21203;BME280;10759;51.982;9.232;2022-08-02T03:30:04;100655.97;;;14.03;100.00
21203;BME280;10759;51.982;9.232;2022-08-02T03:32:33;100655.53;;;13.93;100.00
21203;BME280;10759;51.982;9.232;2022-08-02T03:35:02;100659.94;;;13.95;100.00
21203;BME280;10759;51.982;9.232;2022-08-02T03:37:32;100661.50;;;14.00;100.00
21203;BME280;10759;51.982;9.232;2022-08-02T03:40:02;100658.91;;;13.98;100.00
21203;BME280;10759;51.982;9.232;2022-08-02T03:42:32;100661.81;;;13.93;100.00
21203;BME280;10759;51.982;9.232;2022-08-02T03:45:00;100659.13;;;13.93;100.00
21203;BME280;10759;51.982;9.232;2022-08-02T03:47:34;100659.94;;;13.95;100.00
21203;BME280;10759;51.982;9.232;2022-08-02T03:50:04;100661.50;;;14.00;100.00
21203;BME280;10759;51.982;9.232;2022-08-02T03:52:34;100667.19;;;14.12;100.00
21203;BME280;10759;51.982;9.232;2022-08-02T03:55:03;100663.63;;;14.12;100.00
21203;BME280;10759;51.982;9.232;2022-08-02T03:57:31;100656.72;;;14.06;100.00
21203;BME280;10759;51.982;9.232;2022-08-02T03:59:59;100668.56;;;14.02;100.00
21203;BME280;10759;51.982;9.232;2022-08-02T04:02:27;100657.88;;;14.01;100.00
21203;BME280;10759;51.982;9.232;2022-08-02T04:04:54;100665.00;;;14.02;100.00
21203;BME280;10759;51.982;9.232;2022-08-02T04:07:22;100674.06;;;14.01;100.00
21203;BME280;10759;51.982;9.232;2022-08-02T04:10:12;100678.53;;;14.00;100.00
21203;BME280;10759;51.982;9.232;2022-08-02T04:12:39;100672.56;;;14.12;100.00
21203;BME280;10759;51.982;9.232;2022-08-02T04:15:08;100675.50;;;14.08;100.00
21203;BME280;10759;51.982;9.232;2022-08-02T04:17:38;100680.47;;;13.98;100.00
21203;BME280;10759;51.982;9.232;2022-08-02T04:20:07;100680.47;;;13.98;100.00
21203;BME280;10759;51.982;9.232;2022-08-02T04:22:38;100681.59;;;13.92;100.00
21203;BME280;10759;51.982;9.232;2022-08-02T04:25:07;100675.78;;;14.02;100.00
21203;BME280;10759;51.982;9.232;2022-08-02T04:27:44;100678.09;;;14.09;100.00
21203;BME280;10759;51.982;9.232;2022-08-02T04:30:33;100667.75;;;14.19;100.00
21203;BME280;10759;51.982;9.232;2022-08-02T04:33:01;100673.53;;;14.30;100.00
21203;BME280;10759;51.982;9.232;2022-08-02T04:35:29;100672.56;;;14.31;100.00
21203;BME280;10759;51.982;9.232;2022-08-02T04:37:57;100670.88;;;14.48;100.00
21203;BME280;10759;51.982;9.232;2022-08-02T04:40:35;100673.66;;;14.82;100.00
21203;BME280;10759;51.982;9.232;2022-08-02T04:43:04;100675.38;;;15.18;100.00
21203;BME280;10759;51.982;9.232;2022-08-02T04:45:32;100679.97;;;15.51;100.00
21203;BME280;10759;51.982;9.232;2022-08-02T04:48:01;100683.19;;;15.58;100.00
21203;BME280;10759;51.982;9.232;2022-08-02T04:50:31;100689.22;;;15.80;100.00
21203;BME280;10759;51.982;9.232;2022-08-02T04:52:59;100680.38;;;15.43;100.00
21203;BME280;10759;51.982;9.232;2022-08-02T04:55:27;100687.47;;;15.29;100.00
21203;BME280;10759;51.982;9.232;2022-08-02T04:57:56;100687.22;;;15.16;100.00
21203;BME280;10759;51.982;9.232;2022-08-02T05:00:31;100686.75;;;15.08;100.00
21203;BME280;10759;51.982;9.232;2022-08-02T05:02:59;100677.94;;;15.21;100.00
21203;BME280;10759;51.982;9.232;2022-08-02T05:05:27;100685.81;;;15.59;100.00
21203;BME280;10759;51.982;9.232;2022-08-02T05:07:55;100682.53;;;15.87;100.00
21203;BME280;10759;51.982;9.232;2022-08-02T05:10:23;100686.97;;;16.04;100.00
21203;BME280;10759;51.982;9.232;2022-08-02T05:12:51;100679.25;;;15.30;100.00
21203;BME280;10759;51.982;9.232;2022-08-02T05:15:19;100678.72;;;15.41;100.00
21203;BME280;10759;51.982;9.232;2022-08-02T05:17:48;100685.97;;;15.74;100.00
21203;BME280;10759;51.982;9.232;2022-08-02T05:20:16;100675.91;;;15.93;100.00
21203;BME280;10759;51.982;9.232;2022-08-02T05:22:44;100683.50;;;16.02;100.00
21203;BME280;10759;51.982;9.232;2022-08-02T05:25:12;100690.97;;;15.97;100.00
21203;BME280;10759;51.982;9.232;2022-08-02T05:27:40;100681.41;;;15.41;100.00
21203;BME280;10759;51.982;9.232;2022-08-02T05:30:08;100672.44;;;15.23;100.00
21203;BME280;10759;51.982;9.232;2022-08-02T05:32:41;100676.81;;;15.25;100.00
21203;BME280;10759;51.982;9.232;2022-08-02T05:35:11;100682.53;;;15.37;100.00
21203;BME280;10759;51.982;9.232;2022-08-02T05:37:38;100690.53;;;15.21;100.00
21203;BME280;10759;51.982;9.232;2022-08-02T05:40:08;100690.31;;;15.25;100.00
21203;BME280;10759;51.982;9.232;2022-08-02T05:42:38;100688.09;;;15.16;100.00
21203;BME280;10759;51.982;9.232;2022-08-02T05:45:06;100682.22;;;15.08;100.00
21203;BME280;10759;51.982;9.232;2022-08-02T05:47:35;100691.94;;;15.63;100.00
21203;BME280;10759;51.982;9.232;2022-08-02T05:50:03;100698.88;;;15.34;100.00
21203;BME280;10759;51.982;9.232;2022-08-02T05:52:35;100693.34;;;15.02;100.00
21203;BME280;10759;51.982;9.232;2022-08-02T05:55:04;100692.06;;;15.09;100.00
21203;BME280;10759;51.982;9.232;2022-08-02T05:57:36;100689.38;;;15.27;100.00
21203;BME280;10759;51.982;9.232;2022-08-02T06:00:09;100693.16;;;15.40;100.00
21203;BME280;10759;51.982;9.232;2022-08-02T06:02:50;100693.44;;;15.68;100.00
21203;BME280;10759;51.982;9.232;2022-08-02T06:05:20;100697.41;;;15.95;100.00
21203;BME280;10759;51.982;9.232;2022-08-02T06:07:49;100698.81;;;15.86;100.00
21203;BME280;10759;51.982;9.232;2022-08-02T06:10:19;100699.56;;;15.72;100.00
21203;BME280;10759;51.982;9.232;2022-08-02T06:12:48;100707.09;;;15.83;100.00
21203;BME280;10759;51.982;9.232;2022-08-02T06:15:17;100698.50;;;16.08;100.00
21203;BME280;10759;51.982;9.232;2022-08-02T06:17:45;100707.81;;;16.34;100.00
21203;BME280;10759;51.982;9.232;2022-08-02T06:20:15;100703.72;;;16.59;100.00
21203;BME280;10759;51.982;9.232;2022-08-02T06:22:44;100699.66;;;16.51;100.00
21203;BME280;10759;51.982;9.232;2022-08-02T06:25:14;100701.88;;;16.75;100.00
21203;BME280;10759;51.982;9.232;2022-08-02T06:28:02;100695.28;;;17.11;100.00
21203;BME280;10759;51.982;9.232;2022-08-02T06:30:37;100689.13;;;17.23;100.00
21203;BME280;10759;51.982;9.232;2022-08-02T06:33:06;100691.25;;;17.32;100.00
21203;BME280;10759;51.982;9.232;2022-08-02T06:35:39;100682.88;;;17.07;100.00
21203;BME280;10759;51.982;9.232;2022-08-02T06:38:12;100683.53;;;17.41;100.00
21203;BME280;10759;51.982;9.232;2022-08-02T06:40:44;100700.78;;;17.68;100.00
21203;BME280;10759;51.982;9.232;2022-08-02T06:43:13;100699.94;;;17.96;100.00
21203;BME280;10759;51.982;9.232;2022-08-02T06:45:44;100694.56;;;18.23;100.00
21203;BME280;10759;51.982;9.232;2022-08-02T06:48:12;100706.69;;;18.32;99.94
21203;BME280;10759;51.982;9.232;2022-08-02T06:50:40;100706.75;;;18.45;99.50
21203;BME280;10759;51.982;9.232;2022-08-02T06:53:10;100699.09;;;18.52;100.00
21203;BME280;10759;51.982;9.232;2022-08-02T06:55:38;100703.72;;;18.50;100.00
21203;BME280;10759;51.982;9.232;2022-08-02T06:58:11;100702.09;;;18.47;100.00
21203;BME280;10759;51.982;9.232;2022-08-02T07:00:39;100699.75;;;18.41;100.00
21203;BME280;10759;51.982;9.232;2022-08-02T07:03:07;100689.25;;;18.63;100.00
21203;BME280;10759;51.982;9.232;2022-08-02T07:05:35;100689.13;;;18.79;100.00
21203;BME280;10759;51.982;9.232;2022-08-02T07:08:03;100685.59;;;19.04;100.00
21203;BME280;10759;51.982;9.232;2022-08-02T07:10:31;100680.25;;;18.90;100.00
21203;BME280;10759;51.982;9.232;2022-08-02T07:12:59;100667.94;;;19.24;100.00
21203;BME280;10759;51.982;9.232;2022-08-02T07:15:28;100661.53;;;19.25;100.00
21203;BME280;10759;51.982;9.232;2022-08-02T07:17:56;100661.31;;;19.41;100.00
21203;BME280;10759;51.982;9.232;2022-08-02T07:20:24;100660.66;;;19.50;100.00
21203;BME280;10759;51.982;9.232;2022-08-02T07:22:52;100671.03;;;19.84;100.00
21203;BME280;10759;51.982;9.232;2022-08-02T07:25:20;100664.66;;;20.09;100.00
21203;BME280;10759;51.982;9.232;2022-08-02T07:27:48;100656.38;;;20.23;98.29
21203;BME280;10759;51.982;9.232;2022-08-02T07:30:16;100664.59;;;20.34;98.72
21203;BME280;10759;51.982;9.232;2022-08-02T07:32:45;100658.84;;;20.26;98.63
21203;BME280;10759;51.982;9.232;2022-08-02T07:35:13;100643.72;;;20.59;99.89
21203;BME280;10759;51.982;9.232;2022-08-02T07:37:44;100638.66;;;20.90;94.86
21203;BME280;10759;51.982;9.232;2022-08-02T07:40:27;100633.28;;;21.12;95.51
21203;BME280;10759;51.982;9.232;2022-08-02T07:42:56;100626.88;;;21.25;93.18
21203;BME280;10759;51.982;9.232;2022-08-02T07:45:30;100635.94;;;21.36;91.97
21203;BME280;10759;51.982;9.232;2022-08-02T07:48:03;100645.94;;;21.36;90.07
21203;BME280;10759;51.982;9.232;2022-08-02T07:50:31;100641.41;;;21.36;91.29
21203;BME280;10759;51.982;9.232;2022-08-02T07:52:59;100643.75;;;21.41;89.25
21203;BME280;10759;51.982;9.232;2022-08-02T07:55:27;100650.84;;;21.55;88.56
21203;BME280;10759;51.982;9.232;2022-08-02T07:58:06;100651.97;;;21.52;88.11
21203;BME280;10759;51.982;9.232;2022-08-02T08:00:39;100650.13;;;21.86;89.24
21203;BME280;10759;51.982;9.232;2022-08-02T08:03:09;100656.94;;;22.03;86.96
21203;BME280;10759;51.982;9.232;2022-08-02T08:05:37;100660.53;;;22.15;84.92
21203;BME280;10759;51.982;9.232;2022-08-02T08:08:05;100654.69;;;22.20;83.60
21203;BME280;10759;51.982;9.232;2022-08-02T08:10:36;100652.53;;;22.46;83.63
21203;BME280;10759;51.982;9.232;2022-08-02T08:13:06;100645.38;;;22.45;81.29
21203;BME280;10759;51.982;9.232;2022-08-02T08:15:34;100637.41;;;22.74;81.71
21203;BME280;10759;51.982;9.232;2022-08-02T08:18:02;100632.47;;;22.79;80.40
21203;BME280;10759;51.982;9.232;2022-08-02T08:20:31;100629.25;;;22.95;77.07
21203;BME280;10759;51.982;9.232;2022-08-02T08:22:59;100639.84;;;22.88;70.91
21203;BME280;10759;51.982;9.232;2022-08-02T08:25:27;100642.06;;;22.94;73.92
21203;BME280;10759;51.982;9.232;2022-08-02T08:27:55;100637.09;;;23.21;73.25
21203;BME280;10759;51.982;9.232;2022-08-02T08:30:23;100645.06;;;23.24;73.67
21203;BME280;10759;51.982;9.232;2022-08-02T08:32:51;100640.34;;;23.35;73.68
21203;BME280;10759;51.982;9.232;2022-08-02T08:35:19;100633.59;;;23.09;72.58
21203;BME280;10759;51.982;9.232;2022-08-02T08:37:48;100629.69;;;23.32;73.24
21203;BME280;10759;51.982;9.232;2022-08-02T08:40:17;100625.59;;;23.48;72.37
21203;BME280;10759;51.982;9.232;2022-08-02T08:42:45;100622.78;;;23.59;69.33
21203;BME280;10759;51.982;9.232;2022-08-02T08:45:13;100628.31;;;23.69;69.04
21203;BME280;10759;51.982;9.232;2022-08-02T08:47:43;100628.34;;;23.48;65.81
21203;BME280;10759;51.982;9.232;2022-08-02T08:50:16;100622.41;;;23.43;70.92
21203;BME280;10759;51.982;9.232;2022-08-02T08:52:53;100634.13;;;23.54;68.86
21203;BME280;10759;51.982;9.232;2022-08-02T08:55:24;100627.38;;;23.79;68.45
21203;BME280;10759;51.982;9.232;2022-08-02T08:57:53;100630.31;;;23.88;66.85
21203;BME280;10759;51.982;9.232;2022-08-02T09:00:21;100611.88;;;23.99;65.34
21203;BME280;10759;51.982;9.232;2022-08-02T09:02:49;100623.50;;;23.82;69.42
21203;BME280;10759;51.982;9.232;2022-08-02T09:05:17;100618.97;;;23.71;66.61
21203;BME280;10759;51.982;9.232;2022-08-02T09:07:46;100619.94;;;23.61;67.74
21203;BME280;10759;51.982;9.232;2022-08-02T09:10:37;100618.19;;;23.29;65.52
21203;BME280;10759;51.982;9.232;2022-08-02T09:13:07;100625.28;;;23.72;66.51
21203;BME280;10759;51.982;9.232;2022-08-02T09:15:55;100624.56;;;23.91;66.58
21203;BME280;10759;51.982;9.232;2022-08-02T09:18:29;100625.63;;;24.19;67.21
21203;BME280;10759;51.982;9.232;2022-08-02T09:20:58;100613.78;;;24.49;64.24
21203;BME280;10759;51.982;9.232;2022-08-02T09:23:32;100612.03;;;24.48;65.47
21203;BME280;10759;51.982;9.232;2022-08-02T09:26:02;100612.59;;;24.42;63.16
21203;BME280;10759;51.982;9.232;2022-08-02T09:28:34;100612.63;;;24.52;65.14
21203;BME280;10759;51.982;9.232;2022-08-02T09:31:03;100616.31;;;24.41;61.96
21203;BME280;10759;51.982;9.232;2022-08-02T09:33:31;100623.25;;;24.45;64.25
21203;BME280;10759;51.982;9.232;2022-08-02T09:36:00;100616.66;;;24.48;63.57
21203;BME280;10759;51.982;9.232;2022-08-02T09:38:33;100619.19;;;24.30;67.03
21203;BME280;10759;51.982;9.232;2022-08-02T09:41:03;100603.41;;;24.72;65.56
21203;BME280;10759;51.982;9.232;2022-08-02T09:43:35;100614.66;;;24.59;61.69
21203;BME280;10759;51.982;9.232;2022-08-02T09:46:18;100613.31;;;24.63;65.06
21203;BME280;10759;51.982;9.232;2022-08-02T09:48:51;100604.69;;;24.78;61.67
21203;BME280;10759;51.982;9.232;2022-08-02T09:51:20;100607.28;;;24.79;64.79
21203;BME280;10759;51.982;9.232;2022-08-02T09:53:49;100607.16;;;24.81;60.56
21203;BME280;10759;51.982;9.232;2022-08-02T09:56:42;100605.41;;;24.99;63.42
21203;BME280;10759;51.982;9.232;2022-08-02T09:59:10;100604.53;;;25.18;63.24
21203;BME280;10759;51.982;9.232;2022-08-02T10:01:38;100604.09;;;25.23;61.34
21203;BME280;10759;51.982;9.232;2022-08-02T10:04:18;100600.75;;;25.29;62.27
21203;BME280;10759;51.982;9.232;2022-08-02T10:06:50;100598.13;;;25.37;61.66
21203;BME280;10759;51.982;9.232;2022-08-02T10:09:19;100585.44;;;25.36;58.93
21203;BME280;10759;51.982;9.232;2022-08-02T10:11:48;100595.66;;;25.44;60.58
21203;BME280;10759;51.982;9.232;2022-08-02T10:14:16;100573.69;;;25.54;60.66
21203;BME280;10759;51.982;9.232;2022-08-02T10:16:51;100592.31;;;25.60;57.20
21203;BME280;10759;51.982;9.232;2022-08-02T10:19:20;100590.41;;;25.60;56.30
21203;BME280;10759;51.982;9.232;2022-08-02T10:22:09;100581.09;;;25.43;58.44
21203;BME280;10759;51.982;9.232;2022-08-02T10:24:38;100583.13;;;25.32;56.76
21203;BME280;10759;51.982;9.232;2022-08-02T10:27:16;100586.22;;;25.19;56.00
21203;BME280;10759;51.982;9.232;2022-08-02T10:29:46;100590.09;;;25.26;59.97
21203;BME280;10759;51.982;9.232;2022-08-02T10:32:23;100590.53;;;25.21;55.71
21203;BME280;10759;51.982;9.232;2022-08-02T10:34:54;100590.66;;;25.20;57.37
21203;BME280;10759;51.982;9.232;2022-08-02T10:37:43;100583.53;;;25.46;59.03
21203;BME280;10759;51.982;9.232;2022-08-02T10:40:12;100574.88;;;25.41;54.72
21203;BME280;10759;51.982;9.232;2022-08-02T10:42:51;100569.63;;;25.11;53.59
21203;BME280;10759;51.982;9.232;2022-08-02T10:45:19;100566.41;;;25.05;52.46
21203;BME280;10759;51.982;9.232;2022-08-02T10:47:58;100566.16;;;25.09;55.36
21203;BME280;10759;51.982;9.232;2022-08-02T10:53:26;100570.09;;;25.53;55.85
21203;BME280;10759;51.982;9.232;2022-08-02T10:55:54;100570.84;;;25.45;49.04
21203;BME280;10759;51.982;9.232;2022-08-02T10:59:45;100557.34;;;25.52;50.51
21203;BME280;10759;51.982;9.232;2022-08-02T11:02:32;100568.81;;;25.47;49.49
21203;BME280;10759;51.982;9.232;2022-08-02T11:05:08;100573.56;;;25.45;48.73
21203;BME280;10759;51.982;9.232;2022-08-02T11:07:38;100568.13;;;25.36;51.71
21203;BME280;10759;51.982;9.232;2022-08-02T11:10:32;100563.31;;;25.47;49.28
21203;BME280;10759;51.982;9.232;2022-08-02T11:13:07;100572.97;;;25.52;47.90
21203;BME280;10759;51.982;9.232;2022-08-02T11:15:53;100548.41;;;25.60;50.66
21203;BME280;10759;51.982;9.232;2022-08-02T11:19:00;100477.25;;;25.21;48.93
21203;BME280;10759;51.982;9.232;2022-08-02T11:21:21;100575.97;;;25.96;51.68
21203;BME280;10759;51.982;9.232;2022-08-02T11:23:51;100573.47;;;26.02;48.07
21203;BME280;10759;51.982;9.232;2022-08-02T11:26:41;100576.00;;;26.13;48.21
21203;BME280;10759;51.982;9.232;2022-08-02T11:29:10;100570.03;;;26.18;49.08
21203;BME280;10759;51.982;9.232;2022-08-02T11:31:45;100508.38;;;25.95;46.48
21203;BME280;10759;51.982;9.232;2022-08-02T11:34:15;100567.59;;;25.97;48.17
21203;BME280;10759;51.982;9.232;2022-08-02T11:37:03;100552.72;;;25.62;48.53
21203;BME280;10759;51.982;9.232;2022-08-02T11:39:31;100553.97;;;25.40;nan
21203;BME280;10759;51.982;9.232;2022-08-02T11:42:00;100528.91;;;25.25;50.04
21203;BME280;10759;51.982;9.232;2022-08-02T11:44:29;100560.38;;;25.59;49.29
21203;BME280;10759;51.982;9.232;2022-08-02T11:47:07;100565.81;;;25.68;48.18
21203;BME280;10759;51.982;9.232;2022-08-02T11:49:35;100565.97;;;25.67;50.16
21203;BME280;10759;51.982;9.232;2022-08-02T11:52:05;100559.31;;;25.69;52.93
21203;BME280;10759;51.982;9.232;2022-08-02T11:54:37;100550.84;;;25.63;48.74
21203;BME280;10759;51.982;9.232;2022-08-02T11:57:11;100549.50;;;25.67;49.36
21203;BME280;10759;51.982;9.232;2022-08-02T11:59:48;100542.28;;;25.66;49.50
21203;BME280;10759;51.982;9.232;2022-08-02T12:02:19;100537.84;;;25.65;49.37
21203;BME280;10759;51.982;9.232;2022-08-02T12:04:52;100469.75;;;25.23;48.36
21203;BME280;10759;51.982;9.232;2022-08-02T12:07:28;100538.72;;;25.83;49.78
21203;BME280;10759;51.982;9.232;2022-08-02T12:10:01;100536.94;;;26.02;48.49
21203;BME280;10759;51.982;9.232;2022-08-02T12:12:30;100508.34;;;25.67;49.13
21203;BME280;10759;51.982;9.232;2022-08-02T12:14:58;100530.81;;;25.80;48.57
21203;BME280;10759;51.982;9.232;2022-08-02T12:17:28;100545.91;;;25.94;48.60
21203;BME280;10759;51.982;9.232;2022-08-02T12:20:14;100538.44;;;26.14;47.81
21203;BME280;10759;51.982;9.232;2022-08-02T12:22:43;100538.03;;;26.45;47.74
21203;BME280;10759;51.982;9.232;2022-08-02T12:25:15;100535.31;;;26.45;47.22
21203;BME280;10759;51.982;9.232;2022-08-02T12:28:12;100540.66;;;26.64;47.58
21203;BME280;10759;51.982;9.232;2022-08-02T12:30:50;100534.69;;;26.95;46.37
21203;BME280;10759;51.982;9.232;2022-08-02T12:33:21;100531.47;;;26.73;45.77
21203;BME280;10759;51.982;9.232;2022-08-02T12:35:49;100535.50;;;26.61;46.54
21203;BME280;10759;51.982;9.232;2022-08-02T12:38:18;100533.38;;;26.55;47.07
21203;BME280;10759;51.982;9.232;2022-08-02T12:40:48;100527.06;;;26.81;48.25
21203;BME280;10759;51.982;9.232;2022-08-02T12:43:18;100449.53;;;26.15;47.41
21203;BME280;10759;51.982;9.232;2022-08-02T12:45:50;100484.19;;;26.52;47.21
21203;BME280;10759;51.982;9.232;2022-08-02T12:48:32;100532.09;;;26.85;49.95
21203;BME280;10759;51.982;9.232;2022-08-02T12:51:25;100534.94;;;26.75;47.56
21203;BME280;10759;51.982;9.232;2022-08-02T12:54:16;100516.16;;;26.35;49.51
21203;BME280;10759;51.982;9.232;2022-08-02T12:56:44;100523.28;;;26.46;48.88
21203;BME280;10759;51.982;9.232;2022-08-02T12:59:12;100512.06;;;26.39;48.69
21203;BME280;10759;51.982;9.232;2022-08-02T13:01:41;100518.03;;;26.52;47.99
21203;BME280;10759;51.982;9.232;2022-08-02T13:04:10;100427.72;;;26.13;48.08
21203;BME280;10759;51.982;9.232;2022-08-02T13:06:42;100511.94;;;26.59;47.32
21203;BME280;10759;51.982;9.232;2022-08-02T13:09:13;100521.09;;;26.67;48.55
21203;BME280;10759;51.982;9.232;2022-08-02T13:11:42;100514.19;;;26.81;47.66